Weather observations for the past three days for
Edinburg, Edinburg International Airport
Imperial (Metric)
Date Time (cdt) Wind (mph) Vis. (mi.) Weather Sky Cond. Temperature (ºF) Relative Humidity Wind Chill (°F) Heat Index (°F) Pressure Precipitation (in)
Air Dwpt 6 hour altimeter (in) sea level (mb) 1 hr 3 hr 6 hr
Max. Min.
04 12:15 SE 13 G 21 10.00 Fair CLR 96.8 71.6 44% 105 29.87 0.0
04 11:56 S 17 G 23 10.00 Fair CLR 95 71.6 47% 103 29.88 0.0
04 11:36 SE 16 10.00 Fair CLR 93.2 73.4 53% 103 29.88 0.0
04 11:15 SE 17 G 22 10.00 Fair CLR 93.2 73.4 53% 103 29.88 0.0
04 10:55 S 17 G 23 10.00 Partly Cloudy SCT028 91.4 73.4 56% 100 29.89 0.0
04 10:35 S 20 G 23 10.00 Mostly Cloudy BKN026 BKN032 91.4 75.2 59% 103 29.89 0.0
04 10:15 S 16 G 24 10.00 Mostly Cloudy BKN024 BKN029 87.8 75.2 66% 98 29.89 0.0
04 09:55 SE 16 10.00 Mostly Cloudy BKN022 87.8 75.2 66% 98 29.88 0.0
04 09:35 S 16 10.00 Mostly Cloudy BKN018 BKN075 87.8 77 70% 100 29.88 0.0
04 09:16 S 15 10.00 Mostly Cloudy FEW016 BKN075 86 77 75% 97 29.88 0.0
04 08:55 SE 10 10.00 Partly Cloudy SCT075 84.2 77 79% 94 29.88 0.0
04 08:35 SE 13 10.00 A Few Clouds FEW075 84.2 77 79% 94 29.88 0.0
04 08:15 E 3 10.00 Fair CLR 82.4 77 84% 91 29.88 0.0
04 07:55 Calm 10.00 Fair CLR 80.6 77 89% 87 29.88 0.0
04 07:35 Calm 10.00 Fair CLR 78.8 75.2 89% 82 29.87 0.0
04 07:16 Calm 10.00 Fair CLR 78.8 75.2 89% 82 29.86 0.0
04 06:55 SE 7 10.00 Fair CLR 78.8 75.2 84.6 79.3 89% 82 29.85 0.0
04 06:35 SE 6 10.00 Fair CLR 80.6 75.2 84% 86 29.85 0.0
04 06:17 SE 6 10.00 Fair CLR 80.6 75.2 84% 86 29.85 0.0
04 05:55 SE 5 10.00 Fair CLR 80.6 75.2 84% 86 29.85 0.0
04 05:35 SE 6 10.00 A Few Clouds FEW018 80.6 77 89% 87 29.85 0.0
04 05:16 SE 6 10.00 A Few Clouds FEW018 80.6 77 89% 87 29.84 0.0
04 04:56 SE 7 10.00 Fair CLR 80.6 77 89% 87 29.84 0.0
04 04:35 S 7 10.00 Fair CLR 82.4 77 84% 91 29.84 0.0
04 04:15 S 7 10.00 Partly Cloudy SCT021 82.4 77 84% 91 29.84 0.0
04 03:55 S 7 10.00 Partly Cloudy SCT021 82.4 77 84% 91 29.85 0.0
04 03:35 S 7 10.00 Partly Cloudy FEW021 SCT028 SCT033 82.4 77 84% 91 29.85 0.0
04 03:15 S 8 10.00 Mostly Cloudy BKN021 BKN027 BKN032 82.4 77 84% 91 29.85 0.0
04 02:55 SE 7 10.00 Overcast OVC019 84.2 77 79% 94 29.86 0.0
04 02:36 SE 9 10.00 Overcast OVC019 84.2 77 79% 94 29.87 0.0
04 02:15 SE 9 10.00 Mostly Cloudy BKN021 84.2 77 79% 94 29.87 0.0
04 01:55 SE 12 10.00 A Few Clouds FEW023 84.2 77 79% 94 29.87 0.0
04 01:35 SE 10 10.00 Fair CLR 84.2 77 79% 94 29.87 0.0
04 01:15 SE 13 10.00 Fair CLR 84.2 77 79% 94 29.87 0.0
04 00:55 SE 13 10.00 Fair CLR 84.2 77 95.4 84.4 79% 94 29.87 0.0
04 00:35 S 14 10.00 A Few Clouds FEW021 84.2 77 79% 94 29.87 0.0
04 00:15 S 16 10.00 A Few Clouds FEW024 84.2 77 79% 94 29.87 0.0
03 23:56 S 16 G 22 10.00 Partly Cloudy SCT024 86 77 75% 97 29.87 0.0
03 23:35 SE 15 G 23 10.00 Partly Cloudy SCT026 SCT034 86 75.2 70% 95 29.87 0.0
03 23:15 SE 15 10.00 Partly Cloudy FEW026 SCT034 86 75.2 70% 95 29.87 0.0
03 22:55 SE 15 10.00 A Few Clouds FEW024 86 75.2 70% 95 29.87 0.0
03 22:35 SE 20 G 25 10.00 A Few Clouds FEW026 86 75.2 70% 95 29.86 0.0
03 22:15 SE 17 G 22 10.00 Partly Cloudy SCT028 86 75.2 70% 95 29.85 0.0
03 21:55 SE 18 10.00 A Few Clouds FEW028 86 75.2 70% 95 29.85 0.0
03 21:35 SE 16 G 24 10.00 Partly Cloudy SCT030 87.8 75.2 66% 98 29.84 0.0
03 21:15 SE 18 10.00 Mostly Cloudy BKN030 87.8 75.2 66% 98 29.84 0.0
03 20:55 SE 20 10.00 A Few Clouds FEW032 87.8 75.2 66% 98 29.83 0.0
03 20:35 SE 20 G 23 10.00 Fair CLR 87.8 73.4 62% 96 29.82 0.0
03 20:15 SE 21 10.00 Fair and Breezy CLR 89.6 73.4 59% 98 29.8 0.0
03 19:55 SE 18 G 26 10.00 Fair CLR 91.4 73.4 56% 100 29.81 0.0
03 19:35 SE 22 10.00 Fair and Breezy CLR 91.4 71.6 52% 99 29.8 0.0
03 19:15 SE 22 G 26 10.00 Fair and Breezy CLR 93.2 71.6 50% 101 29.79 0.0
03 18:55 SE 20 10.00 Fair CLR 95 71.6 104.5 95.4 47% 103 29.79 0.0
03 18:35 SE 21 G 26 10.00 Fair and Breezy CLR 96.8 71.6 44% 105 29.78 0.0
03 18:15 SE 18 G 28 10.00 Fair CLR 98.6 71.6 42% 108 29.77 0.0
03 17:55 SE 24 G 31 10.00 Fair and Breezy CLR 98.6 69.8 39% 106 29.76 0.0
03 17:35 SE 16 G 24 10.00 Fair CLR 102.2 68 33% 108 29.75 0.0
03 17:15 S 14 10.00 Fair CLR 102.2 68 33% 108 29.75 0.0
03 16:55 S 13 G 20 10.00 A Few Clouds FEW065 FEW080 102.2 68 33% 108 29.75 0.0
03 16:35 S 12 10.00 Mostly Cloudy BKN075 BKN095 104 69.8 33% 112 29.75 0.0
03 16:15 SE 13 G 21 10.00 Partly Cloudy SCT075 SCT085 102.2 69.8 35% 110 29.75 0.0
03 15:55 SE 16 G 21 10.00 Fair CLR 104 68 31% 111 29.76 0.0
03 15:35 E 9 10.00 A Few Clouds FEW065 102.2 66.2 31% 107 29.77 0.0
03 15:15 SE 14 G 18 10.00 Partly Cloudy SCT065 102.2 68 33% 108 29.78 0.0
03 14:55 S 12 G 20 10.00 A Few Clouds FEW060 100.4 69.8 37% 108 29.79 0.0
03 14:35 Vrbl 7 G 17 10.00 A Few Clouds FEW060 102.2 69.8 35% 110 29.8 0.0
03 14:15 S 10 G 18 10.00 Fair CLR 100.4 71.6 40% 110 29.81 0.0
03 13:55 SE 12 G 20 10.00 Fair CLR 100.4 69.8 37% 108 29.82 0.0
03 13:35 S 14 G 18 10.00 Fair CLR 100.4 71.6 40% 110 29.83 0.0
03 13:15 S 13 G 17 10.00 Fair CLR 100.4 71.6 40% 110 29.84 0.0
03 12:55 S 12 G 16 10.00 Fair CLR 98.6 71.6 99.5 81.5 42% 108 29.85 0.0
03 12:35 S 14 10.00 Fair CLR 98.6 71.6 42% 108 29.85 0.0
03 12:15 SE 13 G 22 10.00 Fair CLR 96.8 71.6 44% 105 29.87 0.0
03 11:55 S 15 G 22 10.00 Fair CLR 95 73.4 50% 105 29.88 0.0
03 11:35 S 17 G 22 10.00 Fair CLR 95 73.4 50% 105 29.88 0.0
03 11:15 S 17 G 21 10.00 A Few Clouds FEW033 95 73.4 50% 105 29.88 0.0
03 10:55 S 17 G 23 10.00 A Few Clouds FEW033 93.2 73.4 53% 103 29.89 0.0
03 10:35 S 16 G 25 10.00 A Few Clouds FEW027 91.4 75.2 59% 103 29.88 0.0
03 10:15 S 17 10.00 Mostly Cloudy BKN025 91.4 75.2 59% 103 29.89 0.0
03 09:55 S 13 10.00 Partly Cloudy SCT023 SCT030 89.6 75.2 63% 100 29.89 0.0
03 09:35 S 14 10.00 A Few Clouds FEW020 FEW025 87.8 75.2 66% 98 29.89 0.0
03 09:15 SE 13 10.00 Partly Cloudy SCT018 87.8 77 70% 100 29.9 0.0
03 08:55 Calm 10.00 Partly Cloudy SCT018 86 77 75% 97 29.9 0.0
03 08:35 SE 10 10.00 Fair CLR 84.2 77 79% 94 29.9 0.0
03 08:15 S 9 10.00 Fair CLR 84.2 77 79% 94 29.9 0.0
03 07:55 S 7 10.00 Fair CLR 82.4 77 84% 91 29.89 0.0
03 07:35 S 8 10.00 Fair CLR 82.4 77 84% 91 29.89 0.0
03 07:15 S 9 10.00 Fair CLR 82.4 77 84% 91 29.88 0.0
03 06:55 S 9 10.00 Fair CLR 82.4 77 84.6 81.9 84% 91 29.88 0.0
03 06:35 S 10 10.00 Fair CLR 82.4 77 84% 91 29.88 0.0
03 06:15 S 9 10.00 Fair CLR 82.4 77 84% 91 29.88 0.0
03 05:55 S 10 10.00 A Few Clouds FEW017 82.4 77 84% 91 29.87 0.0
03 05:35 S 13 10.00 Partly Cloudy SCT017 82.4 77 84% 91 29.88 0.0
03 05:15 S 13 10.00 Mostly Cloudy BKN017 82.4 77 84% 91 29.88 0.0
03 04:55 S 9 10.00 Overcast OVC017 84.2 77 79% 94 29.89 0.0
03 04:35 S 10 10.00 Overcast OVC019 82.4 77 84% 91 29.89 0.0
03 04:15 S 7 10.00 Mostly Cloudy BKN019 82.4 77 84% 91 29.89 0.0
03 03:55 S 10 10.00 Mostly Cloudy BKN019 BKN025 84.2 77 79% 94 29.89 0.0
03 03:35 S 10 10.00 Partly Cloudy SCT021 84.2 77 79% 94 29.89 0.0
03 03:15 S 12 10.00 Fair CLR 84.2 77 79% 94 29.89 0.0
03 02:55 S 12 10.00 Fair CLR 84.2 77 79% 94 29.89 0.0
03 02:35 S 15 10.00 Fair CLR 84.2 77 79% 94 29.9 0.0
03 02:15 S 15 G 22 10.00 Fair CLR 84.2 75.2 74% 92 29.9 0.0
03 01:55 S 10 G 18 10.00 Fair CLR 84.2 75.2 74% 92 29.9 0.0
03 01:35 S 14 10.00 Fair CLR 84.2 75.2 74% 92 29.9 0.0
03 01:15 S 17 G 22 10.00 Fair CLR 84.2 77 79% 94 29.9 0.0
03 00:55 S 14 10.00 Fair CLR 84.2 77 97.9 84.4 79% 94 29.9 0.0
03 00:35 S 16 G 23 10.00 Fair CLR 84.2 77 79% 94 29.9 0.0
03 00:15 S 16 G 24 10.00 Fair CLR 84.2 77 79% 94 29.91 0.0
02 23:55 S 16 10.00 Fair CLR 84.2 77 79% 94 29.91 0.0
02 23:35 S 16 10.00 Fair CLR 84.2 77 79% 94 29.91 0.0
02 23:15 SE 15 10.00 Fair CLR 86 77 75% 97 29.91 0.0
02 22:55 S 15 G 21 10.00 Fair CLR 86 77 75% 97 29.91 0.0
02 22:35 S 14 10.00 Fair CLR 86 75.2 70% 95 29.9 0.0
02 22:15 S 16 G 22 10.00 A Few Clouds FEW025 86 75.2 70% 95 29.9 0.0
02 21:55 S 16 10.00 Fair CLR 87.8 75.2 66% 98 29.89 0.0
02 21:35 SE 18 10.00 Fair CLR 87.8 75.2 66% 98 29.88 0.0
02 21:16 SE 17 10.00 Fair CLR 87.8 75.2 66% 98 29.86 0.0
02 20:55 SE 18 10.00 Fair CLR 89.6 75.2 63% 100 29.85 0.0
02 20:35 SE 16 10.00 Fair CLR 91.4 73.4 56% 100 29.84 0.0
02 20:15 SE 14 10.00 Fair CLR 91.4 73.4 56% 100 29.84 0.0
02 19:55 SE 16 10.00 Fair CLR 93.2 71.6 50% 101 29.83 0.0
02 19:35 SE 18 10.00 Fair CLR 95 71.6 47% 103 29.82 0.0
02 19:15 SE 15 10.00 Fair CLR 96.8 68 39% 102 29.82 0.0
02 18:55 SE 18 G 23 10.00 Fair CLR 96.8 68 104.7 97 39% 102 29.82 0.0
02 18:35 S 15 10.00 Fair CLR 98.6 66.2 35% 103 29.82 0.0
02 18:15 S 18 G 23 10.00 Fair CLR 100.4 66.2 33% 105 29.81 0.0
02 17:55 S 16 G 20 10.00 Fair CLR 102.2 68 33% 108 29.81 0.0
02 17:35 SE 15 G 22 10.00 A Few Clouds FEW075 102.2 68 33% 108 29.81 0.0
02 17:15 S 14 G 26 10.00 A Few Clouds FEW075 102.2 66.2 31% 107 29.81 0.0
02 16:55 S 20 10.00 Fair CLR 102.2 64.4 29% 106 29.81 0.0
02 16:35 S 7 10.00 Fair CLR 104 60.8 24% 105 29.82 0.0
02 16:15 SE 10 G 23 10.00 Fair CLR 102.2 62.6 27% 104 29.82 0.0
02 15:57 SE 16 10.00 A Few Clouds FEW075 102.2 64.4 29% 106 29.83 0.0
02 15:35 S 14 10.00 A Few Clouds FEW070 102.2 66.2 31% 107 29.84 0.0
02 15:15 S 8 G 28 10.00 A Few Clouds FEW070 102.2 68 33% 108 29.85 0.0
02 14:55 SE 7 10.00 Fair CLR 102.2 68 33% 108 29.86 0.0
02 14:35 S 15 G 18 10.00 A Few Clouds FEW065 102.2 68 33% 108 29.87 0.0
02 14:15 S 15 G 18 10.00 Fair CLR 102.2 66.2 31% 107 29.88 0.0
02 13:55 S 12 G 20 10.00 A Few Clouds FEW055 100.4 68 35% 106 29.89 0.0
02 13:35 S 12 G 21 10.00 Partly Cloudy SCT055 98.6 69.8 39% 106 29.9 0.0
02 13:15 S 14 10.00 A Few Clouds FEW055 98.6 71.6 42% 108 29.91 0.0
02 12:55 S 10 G 18 10.00 Fair CLR 98.6 71.6 98.6 78.3 42% 108 29.92 0.0
02 12:36 S 10 G 16 10.00 Fair CLR 96.8 71.6 44% 105 29.93 0.0
02 12:15 S 10 G 16 10.00 Fair CLR 96.8 71.6 44% 105 29.94 0.0
02 11:55 S 13 G 17 10.00 Fair CLR 95 71.6 47% 103 29.95 0.0
02 11:35 S 15 10.00 Fair CLR 95 71.6 47% 103 29.95 0.0
02 11:15 S 13 10.00 Fair CLR 93.2 73.4 53% 103 29.95 0.0
02 10:55 S 15 10.00 Fair CLR 93.2 73.4 53% 103 29.95 0.0
02 10:35 S 15 G 23 10.00 A Few Clouds FEW025 91.4 73.4 56% 100 29.95 0.0
02 10:15 S 15 G 21 10.00 A Few Clouds FEW025 89.6 75.2 63% 100 29.95 0.0
02 09:55 S 16 10.00 A Few Clouds FEW021 87.8 75.2 66% 98 29.95 0.0
02 09:35 S 14 G 20 10.00 Mostly Cloudy BKN017 BKN024 87.8 77 70% 100 29.95 0.0
02 09:15 S 13 G 17 10.00 Mostly Cloudy BKN015 86 77 75% 97 29.95 0.0
02 08:55 S 10 10.00 Partly Cloudy SCT015 84.2 77 79% 94 29.95 0.0
02 08:35 Calm 10.00 Fair CLR 84.2 77 79% 94 29.95 0.0
02 08:15 Calm 10.00 Fair CLR 82.4 77 84% 91 29.95 0.0
02 07:55 Calm 10.00 Fair CLR 80.6 77 89% 87 29.94 0.0
02 07:35 Calm 10.00 Fair CLR 78.8 75.2 89% 82 29.94 0.0
02 07:15 Calm 10.00 Fair CLR 78.8 75.2 89% 82 29.94 0.0
02 06:55 SE 3 10.00 Fair CLR 78.8 75.2 83.7 79.3 89% 82 29.93 0.0
02 06:36 S 6 10.00 Fair CLR 80.6 75.2 84% 86 29.93 0.0
02 06:15 S 7 10.00 Fair CLR 80.6 75.2 84% 86 29.93 0.0
02 05:56 S 8 10.00 Fair CLR 80.6 75.2 84% 86 29.93 0.0
02 05:35 S 10 10.00 Fair CLR 82.4 75.2 79% 89 29.93 0.0
02 05:15 S 9 10.00 Fair CLR 82.4 75.2 79% 89 29.92 0.0
02 04:55 S 9 10.00 Fair CLR 82.4 75.2 79% 89 29.93 0.0
02 04:35 S 7 10.00 Fair CLR 82.4 75.2 79% 89 29.93 0.0
02 04:15 S 8 10.00 Fair CLR 82.4 75.2 79% 89 29.93 0.0
02 03:55 S 9 10.00 Fair CLR 82.4 75.2 79% 89 29.93 0.0
02 03:35 S 10 10.00 Fair CLR 82.4 75.2 79% 89 29.93 0.0
02 03:15 S 9 10.00 Fair CLR 82.4 75.2 79% 89 29.93 0.0
02 02:55 S 10 10.00 Fair CLR 82.4 75.2 79% 89 29.93 0.0
02 02:35 S 12 10.00 Fair CLR 82.4 75.2 79% 89 29.94 0.0
02 02:15 S 14 G 20 10.00 Fair CLR 82.4 75.2 79% 89 29.94 0.0
02 01:55 S 12 G 17 10.00 Fair CLR 82.4 77 84% 91 29.95 0.0
02 01:35 S 14 10.00 Fair CLR 82.4 77 84% 91 29.95 0.0
02 01:15 S 10 10.00 Fair CLR 84.2 77 79% 94 29.95 0.0
02 00:55 S 12 10.00 Fair CLR 84.2 77 97.9 83.5 79% 94 29.96 0.0
02 00:37 S 14 10.00 Fair CLR 84.2 75.2 74% 92 29.95 0.0
02 00:15 S 13 G 18 10.00 Fair CLR 84.2 75.2 74% 92 29.95 0.0
01 23:55 S 13 10.00 Fair CLR 84.2 75.2 74% 92 29.95 0.0
01 23:35 S 12 10.00 Fair CLR 84.2 75.2 74% 92 29.95 0.0
01 23:15 SE 12 10.00 Fair CLR 84.2 75.2 74% 92 29.95 0.0
01 22:55 S 10 10.00 Fair CLR 84.2 75.2 74% 92 29.95 0.0
01 22:35 SE 12 10.00 Fair CLR 84.2 75.2 74% 92 29.94 0.0
01 22:15 SE 14 10.00 Fair CLR 86 75.2 70% 95 29.93 0.0
01 21:55 SE 15 10.00 Fair CLR 86 75.2 70% 95 29.92 0.0
01 21:35 SE 13 10.00 Fair CLR 87.8 73.4 62% 96 29.91 0.0
01 21:15 SE 16 G 23 10.00 Fair CLR 87.8 73.4 62% 96 29.89 0.0
01 20:55 SE 13 10.00 Fair CLR 89.6 71.6 55% 96 29.88 0.0
01 20:35 SE 15 10.00 Fair CLR 89.6 71.6 55% 96 29.87 0.0
01 20:15 SE 18 10.00 Fair CLR 91.4 69.8 49% 97 29.87 0.0
01 19:55 SE 17 10.00 Fair CLR 93.2 69.8 47% 99 29.86 0.0
01 19:35 SE 20 10.00 Fair CLR 93.2 69.8 47% 99 29.85 0.0
01 19:15 SE 20 10.00 Fair CLR 96.8 68 39% 102 29.84 0.0
01 18:55 S 18 10.00 Fair CLR 96.8 66.2 103.5 95.9 37% 100 29.83 0.0
01 18:35 SE 18 G 24 10.00 Fair CLR 98.6 66.2 35% 103 29.83 0.0
01 18:15 SE 16 10.00 Fair CLR 100.4 64.4 31% 104 29.83 0.0
01 17:55 SE 13 G 16 10.00 Fair CLR 100.4 64.4 31% 104 29.83 0.0
01 17:35 S 16 G 20 10.00 Fair CLR 102.2 64.4 29% 106 29.82 0.0
01 17:15 SE 9 G 22 10.00 A Few Clouds FEW075 102.2 64.4 29% 106 29.82 0.0
01 16:55 S 13 G 21 10.00 Partly Cloudy SCT075 102.2 64.4 29% 106 29.83 0.0
01 16:35 S 12 10.00 Fair CLR 102.2 64.4 29% 106 29.83 0.0
01 16:15 S 12 10.00 Fair CLR 102.2 64.4 29% 106 29.84 0.0
01 15:55 SE 16 G 24 10.00 Fair CLR 102.2 64.4 29% 106 29.84 0.0
01 15:35 S 14 10.00 Fair CLR 102.2 62.6 27% 104 29.85 0.0
01 15:15 Vrbl 6 10.00 Fair CLR 102.2 62.6 27% 104 29.87 0.0
01 14:55 S 16 10.00 Fair CLR 102.2 64.4 29% 106 29.88 0.0
01 14:35 SE 9 10.00 A Few Clouds FEW065 100.4 66.2 33% 105 29.89 0.0
01 14:15 S 10 10.00 A Few Clouds FEW065 100.4 66.2 33% 105 29.89 0.0
01 13:56 S 9 G 17 10.00 Fair CLR 98.6 66.2 35% 103 29.91 0.0
01 13:35 S 9 10.00 Fair CLR 98.6 66.2 35% 103 29.91 0.0
01 13:16 S 12 G 20 10.00 Fair CLR 98.6 68 37% 104 29.92 0.0
01 12:55 S 12 10.00 Fair CLR 96.8 68 98.1 73.8 39% 102 29.93 0.0
01 12:35 S 10 G 18 10.00 Fair CLR 96.8 68 39% 102 29.94 0.0
Date Time (cdt) Wind (mph) Vis. (mi.) Weather Sky Cond. Air Dwpt Max. Min. Relative Humidity Wind Chill (°F) Heat Index (°F) altimeter (in) sea level (mb) 1 hr 3 hr 6 hr
6 hour
Temperature (ºF) Pressure Precipitation (in)